Time;durP1;ratioP1;P1;durP2;ratioP2;P2;SDS_P1;SDS_P2;PMS_P1;PMS_P2;Temp;Humidity;BMP_temperature;BMP_pressure;BME280_temperature;BME280_humidity;BME280_pressure;Samples;Min_cycle;Max_cycle;Signal;HPM_P1;HPM_P2
2021/05/25 00:00:08;;;;;;;1.40;1.30;;;10.90;99.90;;;;;;5054240;28;20933;-68
2021/05/25 00:02:33;;;;;;;1.90;1.70;;;10.80;99.90;;;;;;5054200;28;20395;-68
2021/05/25 00:04:59;;;;;;;2.57;1.40;;;10.80;99.90;;;;;;5044177;28;20768;-68
2021/05/25 00:07:24;;;;;;;2.30;1.43;;;10.70;99.90;;;;;;5034116;28;20161;-68
2021/05/25 00:09:50;;;;;;;2.50;1.20;;;10.60;99.90;;;;;;5034082;28;20173;-68
2021/05/25 00:12:15;;;;;;;2.67;1.93;;;10.60;99.90;;;;;;5051666;28;20187;-68
2021/05/25 00:14:41;;;;;;;1.60;1.27;;;10.50;99.90;;;;;;5053890;28;20188;-68
2021/05/25 00:17:07;;;;;;;1.70;1.37;;;10.50;99.90;;;;;;5053920;28;20216;-68
2021/05/25 00:19:32;;;;;;;4.27;2.50;;;10.50;99.90;;;;;;5053901;28;20161;-68
2021/05/25 00:21:58;;;;;;;2.10;1.60;;;10.50;99.90;;;;;;5053915;28;20172;-68
2021/05/25 00:24:23;;;;;;;1.63;1.03;;;10.40;99.90;;;;;;5053790;28;20622;-68
2021/05/25 00:26:49;;;;;;;1.90;1.40;;;10.40;99.90;;;;;;5054175;28;20157;-68
2021/05/25 00:29:14;;;;;;;1.63;1.20;;;10.40;99.90;;;;;;5037403;28;20231;-68
2021/05/25 00:31:41;;;;;;;3.50;1.67;;;10.40;99.90;;;;;;5053649;28;20617;-68
2021/05/25 00:34:07;;;;;;;1.30;1.07;;;10.40;99.90;;;;;;5051082;28;20206;-68
2021/05/25 00:36:35;;;;;;;2.07;1.10;;;10.40;99.90;;;;;;5033751;28;20392;-68
2021/05/25 00:39:01;;;;;;;2.50;1.30;;;10.40;99.90;;;;;;5033607;28;20153;-68
2021/05/25 00:41:26;;;;;;;2.40;1.27;;;10.40;99.90;;;;;;5034100;28;20483;-68
2021/05/25 00:43:52;;;;;;;1.67;1.23;;;10.40;99.90;;;;;;5033502;28;20193;-68
2021/05/25 00:46:17;;;;;;;1.53;0.90;;;10.40;99.90;;;;;;5050843;28;20184;-68
2021/05/25 00:48:43;;;;;;;1.43;1.10;;;10.40;99.90;;;;;;5053490;28;20156;-68
2021/05/25 00:51:09;;;;;;;2.80;1.10;;;10.40;99.90;;;;;;5053362;28;20556;-68
2021/05/25 00:53:34;;;;;;;1.90;0.90;;;10.40;99.90;;;;;;5053374;28;20160;-68
2021/05/25 00:56:00;;;;;;;1.27;0.90;;;10.40;99.90;;;;;;5053746;28;20341;-68
2021/05/25 00:58:26;;;;;;;1.60;1.20;;;10.40;99.90;;;;;;5053155;28;20164;-68
2021/05/25 01:00:51;;;;;;;2.80;1.10;;;10.40;99.90;;;;;;5053222;28;20751;-68
2021/05/25 01:03:20;;;;;;;1.57;1.43;;;10.40;99.90;;;;;;5052381;28;20653;-68
2021/05/25 01:05:46;;;;;;;1.57;1.33;;;10.40;99.90;;;;;;5034768;28;20646;-68
2021/05/25 01:08:13;;;;;;;1.20;0.87;;;10.40;99.90;;;;;;5033109;28;20509;-68
2021/05/25 01:10:44;;;;;;;1.10;0.77;;;10.40;99.90;;;;;;5033432;28;20412;-68
2021/05/25 01:13:15;;;;;;;1.60;0.93;;;10.40;99.90;;;;;;5033028;28;20971;-68
2021/05/25 01:15:41;;;;;;;3.20;1.03;;;10.40;99.90;;;;;;5032808;28;20483;-68
2021/05/25 01:18:08;;;;;;;1.23;0.83;;;10.40;99.90;;;;;;5033172;28;20384;-68
2021/05/25 01:20:37;;;;;;;2.10;1.33;;;10.30;99.90;;;;;;5033138;28;20451;-68
2021/05/25 01:23:06;;;;;;;1.07;0.93;;;10.30;99.90;;;;;;5032962;28;20475;-68
2021/05/25 01:25:32;;;;;;;1.93;0.83;;;10.30;99.90;;;;;;5033307;28;20450;-68
2021/05/25 01:28:01;;;;;;;1.87;1.03;;;10.30;99.90;;;;;;5033020;28;20404;-68
2021/05/25 01:30:30;;;;;;;1.20;1.03;;;10.30;99.90;;;;;;5043963;28;20267;-68
2021/05/25 01:32:56;;;;;;;1.70;0.90;;;10.20;99.90;;;;;;5052782;28;20478;-68
2021/05/25 01:35:23;;;;;;;3.40;1.07;;;10.20;99.90;;;;;;5044935;28;20463;-68
2021/05/25 01:37:50;;;;;;;2.10;1.20;;;10.20;99.90;;;;;;5052957;28;20482;-68
2021/05/25 01:40:16;;;;;;;2.00;0.97;;;10.20;99.90;;;;;;5053245;28;20404;-68
2021/05/25 01:42:42;;;;;;;1.33;1.00;;;10.20;99.90;;;;;;5051990;28;20445;-68
2021/05/25 01:45:13;;;;;;;0.90;0.80;;;10.20;99.90;;;;;;5032851;28;20402;-68
2021/05/25 01:47:39;;;;;;;2.70;1.23;;;10.20;99.90;;;;;;5032742;28;20407;-68
2021/05/25 01:50:13;;;;;;;1.90;0.93;;;10.20;99.90;;;;;;5032712;28;20396;-68
2021/05/25 01:52:59;;;;;;;1.63;0.80;;;10.20;99.90;;;;;;5036427;28;20190;-68
2021/05/25 01:58:18;;;;;;;1.83;1.00;;;10.30;99.90;;;;;;5070359;28;20501;-68
2021/05/25 02:00:48;;;;;;;4.40;1.10;;;10.30;99.90;;;;;;5050248;28;20457;-68
2021/05/25 02:03:13;;;;;;;1.70;0.87;;;10.30;99.90;;;;;;5049907;28;20505;-68
2021/05/25 02:05:40;;;;;;;2.53;1.30;;;10.30;99.90;;;;;;5050143;28;20900;-68
2021/05/25 02:08:07;;;;;;;1.77;1.10;;;10.30;99.90;;;;;;5050451;28;20787;-69
2021/05/25 02:13:12;;;;;;;1.80;1.10;;;10.30;99.90;;;;;;5070363;28;20725;-68
2021/05/25 02:15:38;;;;;;;1.67;1.10;;;10.30;99.90;;;;;;5070259;28;20379;-68
2021/05/25 02:18:07;;;;;;;3.10;0.90;;;10.30;99.90;;;;;;5070205;28;20389;-68
2021/05/25 02:20:34;;;;;;;1.43;0.73;;;10.30;99.90;;;;;;5070485;28;20390;-68
2021/05/25 02:23:00;;;;;;;2.03;0.80;;;10.20;99.90;;;;;;5070505;28;20390;-68
2021/05/25 02:25:26;;;;;;;1.43;0.80;;;10.20;99.90;;;;;;5070081;28;20386;-68
2021/05/25 02:27:51;;;;;;;2.47;0.90;;;10.20;99.90;;;;;;5056105;28;20282;-68
2021/05/25 02:30:17;;;;;;;2.80;0.90;;;10.10;99.90;;;;;;5059746;28;20405;-68
2021/05/25 02:32:43;;;;;;;1.10;0.90;;;10.20;99.90;;;;;;5069496;28;20211;-68
2021/05/25 02:35:09;;;;;;;0.60;0.60;;;10.10;99.90;;;;;;5069815;28;20883;-68
2021/05/25 02:37:35;;;;;;;1.20;0.80;;;10.00;99.90;;;;;;5070316;28;20160;-68
2021/05/25 02:40:01;;;;;;;1.80;0.90;;;10.00;99.90;;;;;;5070276;28;20729;-68
2021/05/25 02:42:27;;;;;;;2.03;1.10;;;10.00;99.90;;;;;;5069634;28;20162;-68
2021/05/25 02:44:53;;;;;;;2.20;0.93;;;10.00;99.90;;;;;;5055297;28;20501;-68
2021/05/25 02:47:18;;;;;;;1.90;0.73;;;9.90;99.90;;;;;;5049531;28;20160;-68
2021/05/25 02:49:46;;;;;;;2.40;0.80;;;9.90;99.90;;;;;;5049518;28;20160;-68
2021/05/25 02:52:13;;;;;;;1.37;0.80;;;9.90;99.90;;;;;;5049536;28;20191;-68
2021/05/25 02:54:38;;;;;;;1.43;0.90;;;9.80;99.90;;;;;;5049846;28;20478;-68
2021/05/25 02:57:04;;;;;;;1.13;0.87;;;9.80;99.90;;;;;;5049441;28;20831;-68
2021/05/25 02:59:30;;;;;;;2.30;0.90;;;9.80;99.90;;;;;;5049862;28;20188;-69
2021/05/25 03:01:56;;;;;;;1.30;0.70;;;9.80;99.90;;;;;;5050213;28;20432;-69
2021/05/25 03:04:21;;;;;;;1.40;0.80;;;9.80;99.90;;;;;;5064179;28;20180;-70
2021/05/25 03:06:47;;;;;;;1.53;0.87;;;9.70;99.90;;;;;;5069181;28;20213;-69
2021/05/25 03:09:13;;;;;;;4.47;1.00;;;9.70;99.90;;;;;;5072192;28;20172;-69
2021/05/25 03:11:38;;;;;;;1.40;1.00;;;9.60;99.90;;;;;;5068859;28;20203;-70
2021/05/25 03:14:04;;;;;;;2.20;0.90;;;9.60;99.90;;;;;;5069030;28;20164;-69
2021/05/25 03:16:29;;;;;;;1.00;0.70;;;9.60;99.90;;;;;;5068986;28;20156;-69
2021/05/25 03:18:55;;;;;;;1.00;0.80;;;9.50;99.90;;;;;;5054196;28;20183;-70
2021/05/25 03:21:21;;;;;;;2.40;1.00;;;9.60;99.90;;;;;;5049103;28;20252;-69
2021/05/25 03:23:47;;;;;;;2.10;0.80;;;9.50;99.90;;;;;;5042924;28;20530;-69
2021/05/25 03:26:12;;;;;;;1.00;0.80;;;9.50;99.90;;;;;;5035676;28;20172;-69
2021/05/25 03:28:39;;;;;;;2.30;1.10;;;9.50;99.90;;;;;;5035604;28;20171;-69
2021/05/25 03:31:05;;;;;;;1.37;0.83;;;9.50;99.90;;;;;;5044796;28;20196;-69
2021/05/25 03:33:31;;;;;;;1.60;0.73;;;9.50;99.90;;;;;;5035509;28;20488;-69
2021/05/25 03:35:57;;;;;;;1.37;1.00;;;9.40;99.90;;;;;;5036437;28;20419;-69
2021/05/25 03:38:23;;;;;;;1.43;1.20;;;9.40;99.90;;;;;;5038159;28;20406;-69
2021/05/25 03:40:48;;;;;;;2.37;1.10;;;9.40;99.90;;;;;;5035481;28;20157;-69
2021/05/25 03:43:14;;;;;;;1.60;1.03;;;9.40;99.90;;;;;;5035291;28;20153;-69
2021/05/25 03:45:39;;;;;;;1.67;0.90;;;9.40;99.90;;;;;;5035388;28;20149;-69
2021/05/25 03:48:06;;;;;;;2.37;1.10;;;9.40;99.90;;;;;;5035339;28;20171;-70
2021/05/25 03:50:31;;;;;;;1.00;0.87;;;9.40;99.90;;;;;;5035460;28;20157;-70
2021/05/25 03:52:57;;;;;;;1.33;1.10;;;9.40;99.90;;;;;;5039022;28;20454;-70
2021/05/25 03:55:48;;;;;;;1.20;0.90;;;9.40;99.90;;;;;;5034973;28;20163;-70
2021/05/25 04:00:57;;;;;;;2.93;1.47;;;9.40;99.90;;;;;;5038761;28;20421;-70
2021/05/25 04:03:23;;;;;;;1.33;1.23;;;9.40;99.90;;;;;;5055302;28;20391;-70
2021/05/25 04:05:49;;;;;;;1.87;1.50;;;9.30;99.90;;;;;;5057201;28;20402;-70
2021/05/25 04:08:17;;;;;;;1.80;1.53;;;9.30;99.90;;;;;;5055891;28;20411;-70
2021/05/25 04:10:43;;;;;;;2.57;1.10;;;9.30;99.90;;;;;;5034744;28;20195;-69
2021/05/25 04:13:09;;;;;;;3.20;1.13;;;9.20;99.90;;;;;;5034869;28;20448;-69
2021/05/25 04:15:36;;;;;;;2.20;1.23;;;9.20;99.90;;;;;;5034781;28;20934;-70
2021/05/25 04:18:02;;;;;;;2.40;1.20;;;9.20;99.90;;;;;;5034814;28;20211;-69
2021/05/25 04:20:28;;;;;;;1.57;1.10;;;9.20;99.90;;;;;;5036441;28;20407;-70
2021/05/25 04:22:54;;;;;;;2.90;1.23;;;9.20;99.90;;;;;;5035236;28;20161;-69
2021/05/25 04:25:19;;;;;;;4.30;1.80;;;9.10;99.90;;;;;;5035000;28;20169;-69
2021/05/25 04:27:45;;;;;;;1.80;1.20;;;9.10;99.90;;;;;;5034625;28;20215;-69
2021/05/25 04:30:12;;;;;;;2.80;1.27;;;9.20;99.90;;;;;;5042053;28;20191;-70
2021/05/25 04:32:38;;;;;;;1.80;1.23;;;9.10;99.90;;;;;;5034416;28;20278;-70
2021/05/25 04:35:05;;;;;;;1.50;1.07;;;9.10;99.90;;;;;;5034933;28;20399;-70
2021/05/25 04:37:32;;;;;;;3.43;1.37;;;9.10;99.90;;;;;;5035274;28;20873;-70
2021/05/25 04:39:57;;;;;;;1.97;1.10;;;9.10;99.90;;;;;;5034322;28;20391;-70
2021/05/25 04:42:23;;;;;;;3.23;1.77;;;9.00;99.90;;;;;;5036022;28;20403;-70
2021/05/25 04:44:48;;;;;;;1.60;1.50;;;9.00;99.90;;;;;;5054245;28;20168;-70
2021/05/25 04:47:14;;;;;;;2.50;1.40;;;8.90;99.90;;;;;;5054203;28;20174;-70
2021/05/25 04:49:40;;;;;;;2.50;1.53;;;8.90;99.90;;;;;;5054361;28;20219;-70
2021/05/25 04:52:07;;;;;;;2.83;1.70;;;8.90;99.90;;;;;;5054218;28;20551;-70
2021/05/25 04:54:33;;;;;;;2.20;1.50;;;8.90;99.90;;;;;;5054094;28;20191;-70
2021/05/25 04:56:59;;;;;;;1.77;1.37;;;8.90;99.90;;;;;;5053986;28;20403;-70
2021/05/25 04:59:24;;;;;;;3.20;1.50;;;8.90;99.90;;;;;;5053220;28;20942;-70
2021/05/25 05:01:51;;;;;;;1.60;1.50;;;8.90;99.90;;;;;;5039524;28;20196;-70
2021/05/25 05:04:16;;;;;;;2.50;1.13;;;8.90;99.90;;;;;;5035547;28;20256;-70
2021/05/25 05:06:42;;;;;;;2.60;1.80;;;8.80;99.90;;;;;;5034432;28;20415;-70
2021/05/25 05:09:07;;;;;;;2.30;1.57;;;8.90;99.90;;;;;;5033837;28;20169;-70
2021/05/25 05:11:33;;;;;;;2.23;1.63;;;8.80;99.90;;;;;;5033663;28;20661;-70
2021/05/25 05:13:59;;;;;;;1.63;1.37;;;8.80;99.90;;;;;;5033725;28;20533;-70
2021/05/25 05:16:25;;;;;;;4.20;2.00;;;8.90;99.90;;;;;;5034525;28;20207;-70
2021/05/25 05:18:50;;;;;;;3.20;1.60;;;8.80;99.90;;;;;;5034950;28;20383;-70
2021/05/25 05:21:16;;;;;;;3.90;1.53;;;8.90;99.90;;;;;;5033850;28;20198;-70
2021/05/25 05:23:42;;;;;;;4.67;2.27;;;8.90;99.90;;;;;;5033608;28;20218;-70
2021/05/25 05:26:08;;;;;;;4.10;2.33;;;9.00;99.90;;;;;;5033349;28;20183;-70
2021/05/25 05:28:34;;;;;;;3.07;2.00;;;9.00;99.90;;;;;;5033457;28;20556;-70
2021/05/25 05:31:00;;;;;;;1.97;1.70;;;9.00;99.90;;;;;;5038971;28;20441;-70
2021/05/25 05:33:27;;;;;;;2.90;2.17;;;9.10;99.90;;;;;;5036586;28;20180;-70
2021/05/25 05:35:52;;;;;;;1.97;1.73;;;9.10;99.90;;;;;;5053683;28;20179;-70
2021/05/25 05:38:18;;;;;;;2.47;1.80;;;9.20;99.90;;;;;;5053197;28;20833;-70
2021/05/25 05:40:44;;;;;;;5.10;1.67;;;9.30;99.90;;;;;;5053268;28;20625;-70
2021/05/25 05:43:10;;;;;;;3.10;1.93;;;9.30;99.90;;;;;;5053254;28;20522;-69
2021/05/25 05:45:37;;;;;;;2.70;1.97;;;9.40;99.90;;;;;;5053662;28;20167;-69
2021/05/25 05:48:03;;;;;;;2.80;1.70;;;9.50;99.90;;;;;;5054400;28;20505;-70
2021/05/25 05:50:29;;;;;;;2.43;1.97;;;9.60;99.90;;;;;;5052526;28;20420;-70
2021/05/25 05:52:55;;;;;;;2.50;1.53;;;9.60;99.90;;;;;;5052971;28;20441;-69
2021/05/25 05:55:20;;;;;;;2.20;1.80;;;9.70;99.90;;;;;;5052850;28;20395;-69
2021/05/25 05:57:47;;;;;;;2.00;1.80;;;9.70;99.90;;;;;;5052826;28;20168;-70
2021/05/25 06:00:14;;;;;;;2.50;1.93;;;9.70;99.90;;;;;;5050470;28;20192;-70
2021/05/25 06:02:40;;;;;;;3.20;2.20;;;9.60;99.90;;;;;;5034093;28;20423;-69
2021/05/25 06:05:06;;;;;;;1.93;1.60;;;9.60;99.90;;;;;;5033271;28;20395;-69
2021/05/25 06:07:32;;;;;;;2.27;1.70;;;9.60;99.90;;;;;;5036284;28;20514;-70
2021/05/25 06:10:00;;;;;;;2.50;2.20;;;9.60;99.90;;;;;;5053214;28;20473;-70
2021/05/25 06:12:26;;;;;;;2.43;1.70;;;9.70;99.90;;;;;;5053481;28;20204;-70
2021/05/25 06:14:52;;;;;;;2.07;1.50;;;9.70;99.90;;;;;;5053482;28;20421;-69
2021/05/25 06:17:17;;;;;;;2.23;1.50;;;9.80;99.90;;;;;;5053588;28;20161;-70
2021/05/25 06:19:44;;;;;;;3.13;1.80;;;9.80;99.90;;;;;;5052735;28;20156;-70
2021/05/25 06:22:10;;;;;;;4.00;1.60;;;9.80;99.90;;;;;;5052757;28;20152;-70
2021/05/25 06:24:36;;;;;;;3.13;1.60;;;9.80;99.90;;;;;;5051818;28;20418;-70
2021/05/25 06:27:01;;;;;;;2.70;1.93;;;9.80;99.90;;;;;;5052905;28;20744;-70
2021/05/25 06:29:27;;;;;;;2.73;2.53;;;9.70;99.90;;;;;;5054311;28;20187;-70
2021/05/25 06:31:59;;;;;;;2.63;1.70;;;9.70;99.90;;;;;;5034873;28;20809;-70
2021/05/25 06:34:24;;;;;;;2.73;2.33;;;9.70;99.90;;;;;;5032758;28;20153;-70
2021/05/25 06:36:50;;;;;;;7.77;2.20;;;9.80;99.90;;;;;;5032646;28;20396;-70
2021/05/25 06:39:15;;;;;;;1.90;1.80;;;9.80;99.90;;;;;;5032714;28;20165;-70
2021/05/25 06:41:41;;;;;;;2.80;1.93;;;9.80;99.90;;;;;;5033711;28;20192;-70
2021/05/25 06:44:07;;;;;;;2.00;1.80;;;9.80;99.90;;;;;;5033513;28;20670;-70
2021/05/25 06:46:32;;;;;;;2.80;1.80;;;9.80;99.90;;;;;;5035024;28;20521;-70
2021/05/25 06:48:58;;;;;;;2.60;1.80;;;9.80;99.90;;;;;;5032873;28;20173;-70
2021/05/25 06:51:26;;;;;;;1.67;1.50;;;9.70;99.90;;;;;;5032627;28;20200;-70
2021/05/25 06:53:51;;;;;;;2.53;1.70;;;9.70;99.90;;;;;;5032572;28;20228;-70
2021/05/25 06:56:17;;;;;;;3.30;2.07;;;9.70;99.90;;;;;;5032670;28;20823;-70
2021/05/25 06:58:42;;;;;;;2.80;2.20;;;9.60;99.90;;;;;;5034700;28;20204;-70
2021/05/25 07:01:08;;;;;;;2.40;2.10;;;9.70;99.90;;;;;;5036531;28;20209;-70
2021/05/25 07:03:33;;;;;;;2.40;2.20;;;9.70;99.90;;;;;;5036431;28;20239;-70
2021/05/25 07:05:59;;;;;;;4.83;2.60;;;9.80;99.90;;;;;;5036146;28;20153;-70
2021/05/25 07:08:24;;;;;;;2.33;2.13;;;9.90;99.90;;;;;;5036157;28;20165;-70
2021/05/25 07:10:50;;;;;;;2.67;2.20;;;9.90;99.90;;;;;;5036112;28;20165;-70
2021/05/25 07:13:16;;;;;;;2.30;2.10;;;10.00;99.90;;;;;;5035956;28;20215;-71
2021/05/25 07:15:41;;;;;;;2.80;2.33;;;10.00;99.90;;;;;;5036615;28;20264;-70
2021/05/25 07:18:07;;;;;;;1.80;1.70;;;10.10;99.90;;;;;;5035898;28;20594;-70
2021/05/25 07:20:32;;;;;;;3.20;1.77;;;10.10;99.90;;;;;;5035841;28;20161;-70
2021/05/25 07:22:58;;;;;;;2.00;1.67;;;10.20;99.90;;;;;;5035829;28;20165;-70
2021/05/25 07:25:26;;;;;;;1.90;1.77;;;10.20;99.90;;;;;;5035767;28;20171;-70
2021/05/25 07:27:52;;;;;;;3.10;1.97;;;10.10;99.90;;;;;;5035756;28;20168;-70
2021/05/25 07:30:18;;;;;;;2.27;1.43;;;10.10;99.90;;;;;;5039755;28;20478;-70
2021/05/25 07:32:44;;;;;;;2.50;1.97;;;10.20;99.90;;;;;;5040167;28;20974;-70
2021/05/25 07:35:11;;;;;;;2.30;1.60;;;10.30;99.90;;;;;;5055769;28;20441;-70
2021/05/25 07:37:38;;;;;;;1.30;1.20;;;10.50;99.90;;;;;;5055845;28;20399;-70
2021/05/25 07:40:05;;;;;;;1.50;0.90;;;10.70;99.90;;;;;;5055517;28;20401;-70
2021/05/25 07:42:30;;;;;;;1.37;1.20;;;10.90;99.90;;;;;;5057150;28;21051;-70
2021/05/25 07:44:56;;;;;;;2.10;1.23;;;11.00;99.90;;;;;;5058678;28;20482;-70
2021/05/25 07:47:22;;;;;;;1.57;1.33;;;11.10;99.90;;;;;;5055305;28;20543;-70
2021/05/25 07:49:48;;;;;;;1.30;1.20;;;11.10;99.90;;;;;;5054508;28;20411;-70
2021/05/25 07:52:15;;;;;;;1.10;1.00;;;10.90;99.90;;;;;;5055467;28;20195;-70
2021/05/25 07:54:41;;;;;;;1.90;1.30;;;10.70;99.90;;;;;;5055365;28;20160;-70
2021/05/25 07:57:07;;;;;;;2.27;1.33;;;10.60;99.90;;;;;;5056708;28;20390;-70
2021/05/25 07:59:32;;;;;;;1.17;1.07;;;10.50;99.90;;;;;;5056291;28;20192;-70
2021/05/25 08:01:58;;;;;;;1.50;1.00;;;10.50;99.90;;;;;;5035214;28;20402;-70
2021/05/25 08:04:24;;;;;;;1.67;1.33;;;10.40;99.90;;;;;;5035103;28;20228;-70
2021/05/25 08:06:50;;;;;;;1.90;1.30;;;10.40;99.90;;;;;;5035810;28;20176;-70
2021/05/25 08:09:16;;;;;;;1.90;1.30;;;10.40;99.90;;;;;;5035129;28;20790;-70
2021/05/25 08:11:43;;;;;;;2.43;1.30;;;10.40;99.90;;;;;;5036571;28;20588;-70
2021/05/25 08:14:09;;;;;;;1.80;1.07;;;10.50;99.90;;;;;;5038316;28;20817;-70
2021/05/25 08:16:37;;;;;;;4.73;1.67;;;10.50;99.90;;;;;;5034881;28;20438;-70
2021/05/25 08:21:49;;;;;;;1.70;1.20;;;11.30;99.90;;;;;;5034000;28;20431;-70
2021/05/25 08:24:14;;;;;;;1.30;1.03;;;12.80;99.90;;;;;;5035431;28;20920;-70
2021/05/25 08:26:40;;;;;;;0.93;0.70;;;14.20;99.90;;;;;;5037521;28;20240;-70
2021/05/25 08:29:06;;;;;;;1.40;0.90;;;15.30;99.90;;;;;;5037202;28;20162;-71
2021/05/25 08:31:31;;;;;;;1.50;0.90;;;15.60;99.90;;;;;;5053846;28;20196;-70
2021/05/25 08:33:57;;;;;;;0.90;0.70;;;15.60;99.90;;;;;;5054785;28;20161;-70
2021/05/25 08:36:23;;;;;;;0.70;0.60;;;15.40;99.90;;;;;;5054348;28;20161;-70
2021/05/25 08:38:49;;;;;;;1.23;0.80;;;15.10;99.90;;;;;;5054359;28;20517;-70
2021/05/25 08:41:14;;;;;;;0.80;0.70;;;14.70;99.90;;;;;;5045176;28;20176;-70
2021/05/25 08:43:41;;;;;;;1.43;0.70;;;14.20;99.90;;;;;;5034457;28;20154;-70
2021/05/25 08:46:07;;;;;;;2.40;1.47;;;13.90;99.90;;;;;;5034255;28;20164;-71
2021/05/25 08:48:36;;;;;;;1.60;1.00;;;13.60;99.90;;;;;;5034441;28;20392;-71
2021/05/25 08:51:02;;;;;;;3.17;1.60;;;13.30;99.90;;;;;;5034563;28;20406;-70
2021/05/25 08:53:29;;;;;;;2.93;1.77;;;12.90;99.90;;;;;;5034334;28;20907;-70
2021/05/25 08:55:55;;;;;;;1.80;1.40;;;12.70;99.90;;;;;;5034269;28;20162;-70
2021/05/25 08:58:23;;;;;;;1.87;1.30;;;12.50;99.90;;;;;;5034537;28;20419;-70
2021/05/25 09:00:53;;;;;;;2.23;1.77;;;12.40;99.90;;;;;;5048005;28;20441;-70
2021/05/25 09:03:20;;;;;;;1.10;1.00;;;12.30;99.90;;;;;;5053995;28;20403;-70
2021/05/25 09:06:08;;;;;;;1.73;1.07;;;12.20;99.90;;;;;;5040215;28;20427;-70
2021/05/25 09:08:35;;;;;;;2.30;1.07;;;12.10;99.90;;;;;;5033955;28;20403;-70
2021/05/25 09:11:07;;;;;;;1.07;0.97;;;12.00;99.90;;;;;;5033949;28;20399;-70
2021/05/25 09:13:33;;;;;;;2.30;1.50;;;11.90;99.90;;;;;;5033576;28;20802;-70
2021/05/25 09:15:59;;;;;;;1.97;1.60;;;11.90;99.90;;;;;;5048997;28;20414;-70
2021/05/25 09:18:28;;;;;;;2.13;1.80;;;12.00;99.90;;;;;;5053474;28;20187;-70
2021/05/25 09:21:09;;;;;;;2.83;1.90;;;12.60;99.90;;;;;;5053013;28;20880;-70
2021/05/25 09:26:16;;;;;;;3.43;1.90;;;13.40;99.90;;;;;;5075761;28;20573;-69
2021/05/25 09:29:02;;;;;;;2.87;2.30;;;14.10;99.90;;;;;;5070551;28;20515;-69
2021/05/25 09:31:50;;;;;;;1.90;1.70;;;14.60;99.90;;;;;;5069463;28;20404;-69
2021/05/25 09:34:20;;;;;;;2.10;1.90;;;14.90;99.90;;;;;;5069105;28;20410;-69
2021/05/25 09:42:18;;;;;;;2.00;1.80;;;15.00;99.90;;;;;;5091355;27;20515;-70
2021/05/25 09:45:05;;;;;;;1.53;1.43;;;15.30;99.90;;;;;;5090900;28;20415;-70
2021/05/25 09:50:17;;;;;;;2.40;2.20;;;15.30;99.90;;;;;;5052741;28;20897;-70
2021/05/25 09:55:48;;;;;;;1.70;1.60;;;15.10;99.90;;;;;;5075508;28;20530;-70
2021/05/25 09:58:14;;;;;;;2.97;1.60;;;15.20;99.90;;;;;;5070379;28;20386;-70
2021/05/25 10:00:40;;;;;;;1.67;1.57;;;15.40;99.90;;;;;;5069575;28;20757;-70
2021/05/25 10:05:49;;;;;;;2.37;2.17;;;15.90;99.90;;;;;;5065156;28;20506;-70
2021/05/25 10:08:16;;;;;;;2.47;1.70;;;16.20;99.90;;;;;;5050371;28;20395;-70
2021/05/25 10:10:43;;;;;;;1.83;1.70;;;16.20;99.90;;;;;;5050438;28;20379;-71
2021/05/25 10:13:10;;;;;;;2.47;1.90;;;16.00;99.90;;;;;;5050180;28;20456;-71
2021/05/25 10:15:36;;;;;;;2.20;1.30;;;15.80;99.90;;;;;;5049763;28;20403;-70
2021/05/25 10:20:39;;;;;;;3.70;1.43;;;16.00;99.90;;;;;;5070370;28;20512;-69
2021/05/25 10:23:05;;;;;;;2.17;1.70;;;16.00;99.90;;;;;;5069997;28;20437;-70
2021/05/25 10:25:34;;;;;;;2.23;1.60;;;15.80;99.90;;;;;;5070399;28;20164;-70
2021/05/25 10:28:05;;;;;;;1.03;0.90;;;15.40;99.90;;;;;;5070223;28;20160;-70
2021/05/25 10:30:33;;;;;;;2.90;1.90;;;14.90;99.90;;;;;;5070119;28;20422;-70
2021/05/25 10:41:27;;;;;;;3.33;1.60;;;14.30;99.90;;;;;;5052538;28;20941;-70
2021/05/25 10:43:55;;;;;;;2.53;1.83;;;12.60;99.90;;;;;;5050647;28;20395;-70
2021/05/25 10:46:24;;;;;;;3.63;2.03;;;12.40;99.90;;;;;;5050143;28;20474;-70
2021/05/25 10:49:09;;;;;;;3.60;1.97;;;12.30;99.90;;;;;;5050152;28;20922;-70
2021/05/25 10:57:46;;;;;;;2.07;1.87;;;12.20;99.90;;;;;;5082675;28;20524;-69
2021/05/25 11:00:17;;;;;;;5.63;2.33;;;12.40;99.90;;;;;;5068683;28;20445;-70
2021/05/25 11:10:57;;;;;;;3.67;3.20;;;12.50;99.90;;;;;;5106614;27;20517;-71
2021/05/25 11:13:26;;;;;;;3.77;3.40;;;12.80;99.90;;;;;;5088089;28;20429;-71
2021/05/25 11:21:58;;;;;;;5.90;3.37;;;12.80;99.90;;;;;;5070866;28;20986;-70
2021/05/25 11:24:58;;;;;;;4.20;3.03;;;12.70;99.90;;;;;;5070206;28;20410;-70
2021/05/25 11:27:45;;;;;;;2.57;2.30;;;12.50;99.90;;;;;;5069419;28;20474;-70
2021/05/25 11:30:28;;;;;;;2.33;2.13;;;12.40;99.90;;;;;;5069131;28;20416;-70
2021/05/25 11:32:56;;;;;;;3.27;2.47;;;12.30;99.90;;;;;;5069846;28;20520;-70
2021/05/25 11:35:24;;;;;;;2.93;2.30;;;12.20;99.90;;;;;;5069986;28;20374;-70
2021/05/25 11:37:54;;;;;;;3.80;2.90;;;12.20;99.90;;;;;;5070252;28;20386;-70
2021/05/25 11:40:22;;;;;;;2.30;2.10;;;12.30;99.90;;;;;;5069877;28;20457;-70
2021/05/25 11:42:49;;;;;;;2.67;1.83;;;12.40;99.90;;;;;;5069916;28;20390;-70
2021/05/25 11:45:23;;;;;;;2.93;1.63;;;12.50;99.90;;;;;;5069866;28;20400;-70
2021/05/25 11:47:54;;;;;;;1.90;1.80;;;12.60;99.90;;;;;;5068808;28;20444;-70
2021/05/25 11:50:20;;;;;;;4.63;1.60;;;12.70;99.90;;;;;;5069916;28;20471;-70
2021/05/25 11:52:51;;;;;;;4.97;2.30;;;12.90;99.90;;;;;;5069723;28;20397;-70
2021/05/25 11:55:17;;;;;;;2.30;2.10;;;13.20;99.90;;;;;;5069839;28;20409;-70
2021/05/25 11:57:44;;;;;;;3.70;2.20;;;13.50;99.90;;;;;;5069682;28;20397;-70
2021/05/25 12:02:50;;;;;;;2.57;1.70;;;13.80;99.90;;;;;;5090603;27;20572;-70
2021/05/25 12:07:55;;;;;;;3.00;2.37;;;14.30;99.90;;;;;;5070714;28;20532;-71
2021/05/25 12:10:24;;;;;;;3.50;2.63;;;14.60;99.90;;;;;;5070267;28;20429;-71
2021/05/25 12:12:52;;;;;;;2.90;2.47;;;14.70;99.90;;;;;;5070029;28;20405;-71
2021/05/25 12:17:59;;;;;;;4.37;3.03;;;15.10;99.90;;;;;;5027442;27;20528;-70
2021/05/25 12:20:43;;;;;;;5.40;3.40;;;15.20;99.90;;;;;;5029829;28;20933;-70
2021/05/25 12:23:11;;;;;;;3.03;2.77;;;15.40;99.90;;;;;;5010247;28;20416;-70
2021/05/25 12:25:38;;;;;;;4.90;3.37;;;15.50;99.90;;;;;;5007124;28;20448;-70
2021/05/25 12:28:10;;;;;;;3.60;2.80;;;15.50;99.90;;;;;;5007613;28;20393;-70
2021/05/25 12:30:37;;;;;;;3.80;3.10;;;15.50;99.90;;;;;;5025504;28;20416;-70
2021/05/25 12:33:05;;;;;;;4.00;3.03;;;15.50;99.90;;;;;;5027304;28;20399;-70
2021/05/25 12:35:31;;;;;;;3.40;3.00;;;15.50;99.90;;;;;;5027158;28;20401;-71
2021/05/25 12:38:15;;;;;;;4.37;3.20;;;15.50;99.90;;;;;;5026664;28;20400;-70
2021/05/25 12:40:44;;;;;;;3.70;2.30;;;15.30;99.90;;;;;;5026693;28;20392;-70
2021/05/25 12:43:21;;;;;;;3.23;1.27;;;15.10;99.90;;;;;;5026654;28;20827;-70
2021/05/25 12:45:47;;;;;;;2.20;1.37;;;14.60;99.90;;;;;;5026749;28;20521;-70
2021/05/25 12:48:15;;;;;;;5.40;1.60;;;14.30;99.90;;;;;;5026938;28;20384;-70
2021/05/25 12:50:41;;;;;;;1.30;1.20;;;14.00;99.90;;;;;;5026958;28;20442;-70
2021/05/25 12:53:13;;;;;;;1.07;0.97;;;13.90;99.90;;;;;;5026596;28;20480;-70
2021/05/25 12:58:40;;;;;;;1.80;1.27;;;13.40;99.90;;;;;;5110146;27;20529;-70
2021/05/25 13:01:25;;;;;;;1.43;1.10;;;13.30;99.90;;;;;;5111141;28;20814;-70
2021/05/25 13:03:51;;;;;;;1.77;1.20;;;13.30;99.90;;;;;;5114110;28;20376;-70
2021/05/25 13:09:18;;;;;;;3.30;1.50;;;13.30;99.90;;;;;;5070319;28;20532;-70
2021/05/25 13:14:37;;;;;;;2.07;1.27;;;13.50;99.90;;;;;;5070483;28;20981;-71
2021/05/25 13:19:45;;;;;;;2.03;1.60;;;13.50;99.90;;;;;;5071122;28;20517;-70
2021/05/25 13:22:13;;;;;;;2.67;1.27;;;13.40;99.90;;;;;;5070222;28;20390;-70
2021/05/25 13:24:56;;;;;;;1.70;1.30;;;13.30;99.90;;;;;;5070478;28;20487;-70
2021/05/25 13:27:26;;;;;;;2.70;1.33;;;13.30;99.90;;;;;;5070063;28;20401;-70
2021/05/25 13:30:10;;;;;;;1.33;1.07;;;13.40;99.90;;;;;;5065697;28;20398;-70
2021/05/25 13:32:36;;;;;;;1.97;1.43;;;13.50;99.90;;;;;;5053150;28;20825;-70
2021/05/25 13:35:04;;;;;;;2.57;1.33;;;13.50;99.90;;;;;;5056835;28;20461;-70
2021/05/25 13:37:32;;;;;;;3.00;1.87;;;13.60;99.90;;;;;;5070012;28;20744;-70
2021/05/25 13:40:00;;;;;;;3.13;1.50;;;13.70;99.90;;;;;;5070263;28;20398;-70
2021/05/25 13:42:26;;;;;;;2.23;1.20;;;13.80;99.90;;;;;;5070297;28;20472;-70
2021/05/25 13:44:53;;;;;;;2.00;0.90;;;13.90;99.90;;;;;;5070551;28;20390;-70
2021/05/25 13:47:18;;;;;;;1.50;1.30;;;14.00;99.90;;;;;;5064578;28;20414;-71
2021/05/25 13:49:48;;;;;;;1.20;1.10;;;14.20;99.90;;;;;;5049891;28;20439;-70
2021/05/25 13:52:13;;;;;;;3.93;1.20;;;14.30;99.90;;;;;;5050005;28;20160;-70
2021/05/25 13:54:39;;;;;;;1.80;0.87;;;14.40;99.90;;;;;;5049804;28;20752;-70
2021/05/25 13:57:05;;;;;;;1.30;1.03;;;14.40;99.90;;;;;;5050077;28;20629;-70
2021/05/25 13:59:38;;;;;;;5.90;0.97;;;14.40;99.90;;;;;;5049699;28;20200;-71
2021/05/25 14:02:03;;;;;;;4.70;1.10;;;14.50;99.90;;;;;;5067499;28;20517;-71
2021/05/25 14:04:29;;;;;;;2.50;0.97;;;14.50;99.90;;;;;;5066413;28;20433;-71
2021/05/25 14:06:54;;;;;;;6.00;1.63;;;14.50;99.90;;;;;;5049586;28;20206;-71
2021/05/25 14:09:22;;;;;;;1.67;1.00;;;14.50;99.90;;;;;;5049525;28;20167;-71